createdAt,value
2022-10-16T00:00:54.943Z,96914.63
2022-10-16T00:03:25.373Z,96910.44
2022-10-16T00:05:54.895Z,96909.00
2022-10-16T00:08:21.705Z,96909.75
2022-10-16T00:10:48.520Z,96911.78
2022-10-16T00:13:15.198Z,96911.06
2022-10-16T00:15:44.137Z,96913.84
2022-10-16T00:18:11.085Z,96913.13
2022-10-16T00:20:38.001Z,96911.72
2022-10-16T00:23:06.102Z,96917.25
2022-10-16T00:25:33.909Z,96920.00
2022-10-16T00:28:01.655Z,96926.88
2022-10-16T00:30:28.999Z,96919.31
2022-10-16T00:32:56.295Z,96931.00
2022-10-16T00:35:23.327Z,96935.09
2022-10-16T00:37:49.962Z,96935.09
2022-10-16T00:40:17.106Z,96934.38
2022-10-16T00:42:43.783Z,96935.03
2022-10-16T00:45:10.848Z,96936.38
2022-10-16T00:47:50.166Z,96929.44
2022-10-16T00:50:25.676Z,96928.00
2022-10-16T00:52:52.663Z,96921.75
2022-10-16T00:55:19.886Z,96936.31
2022-10-16T00:57:47.115Z,96924.50
2022-10-16T01:00:18.778Z,96916.84
2022-10-16T01:02:45.605Z,96903.03
2022-10-16T01:05:12.255Z,96902.97
2022-10-16T01:07:48.018Z,96908.50
2022-10-16T01:10:24.057Z,96920.16
2022-10-16T01:13:09.610Z,96925.00
2022-10-16T01:15:50.829Z,96933.94
2022-10-16T01:18:18.016Z,96924.91
2022-10-16T01:20:59.944Z,96931.09
2022-10-16T01:23:49.905Z,96929.69
2022-10-16T01:26:19.540Z,96926.19
2022-10-16T01:28:46.185Z,96923.41
2022-10-16T01:31:16.446Z,96915.75
2022-10-16T01:33:49.358Z,96919.88
2022-10-16T01:36:19.859Z,96921.94
2022-10-16T01:38:47.229Z,96930.53
2022-10-16T01:41:19.474Z,96932.34
2022-10-16T01:44:17.648Z,96934.34
2022-10-16T01:46:47.157Z,96937.66
2022-10-16T01:49:14.446Z,96934.19
2022-10-16T01:51:42.868Z,96935.53
2022-10-16T01:54:10.754Z,96938.19
2022-10-16T01:56:38.039Z,96945.06
2022-10-16T01:59:13.032Z,96936.78
2022-10-16T02:01:48.368Z,96935.34
2022-10-16T02:04:36.519Z,96929.13
2022-10-16T02:07:03.279Z,96934.00
2022-10-16T02:09:31.172Z,96928.41
2022-10-16T02:12:00.739Z,96924.22
2022-10-16T02:14:27.664Z,96929.81
2022-10-16T02:16:54.740Z,96925.66
2022-10-16T02:19:34.682Z,96926.25
2022-10-16T02:22:06.017Z,96924.84
2022-10-16T02:25:12.406Z,96905.59
2022-10-16T02:28:00.133Z,96906.19
2022-10-16T02:30:49.474Z,96919.31
2022-10-16T02:33:17.157Z,96917.91
2022-10-16T02:35:46.070Z,96916.47
2022-10-16T02:38:13.847Z,96913.06
2022-10-16T02:40:40.967Z,96914.41
2022-10-16T02:43:07.859Z,96915.13
2022-10-16T02:45:34.551Z,96921.38
2022-10-16T02:48:01.307Z,96908.91
2022-10-16T02:50:27.948Z,96910.31
2022-10-16T02:52:54.667Z,96907.53
2022-10-16T02:55:21.302Z,96907.53
2022-10-16T02:57:48.042Z,96895.78
2022-10-16T03:00:16.827Z,96902.66
2022-10-16T03:02:44.323Z,96905.41
2022-10-16T03:05:11.279Z,96900.59
2022-10-16T03:07:38.032Z,96897.13
2022-10-16T03:10:05.051Z,96898.53
2022-10-16T03:12:32.005Z,96907.53
2022-10-16T03:15:09.613Z,96900.59
2022-10-16T03:17:38.682Z,96913.78
2022-10-16T03:20:05.765Z,96920.66
2022-10-16T03:22:32.388Z,96923.41
2022-10-16T03:24:59.131Z,96913.00
2022-10-16T03:27:26.456Z,96922.00
2022-10-16T03:29:53.514Z,96927.53
2022-10-16T03:32:21.123Z,96934.41
2022-10-16T03:34:47.846Z,96925.41
2022-10-16T03:37:14.516Z,96930.13
2022-10-16T03:39:41.496Z,96929.16
2022-10-16T03:42:08.216Z,96932.41
2022-10-16T03:44:34.933Z,96928.22
2022-10-16T03:47:01.739Z,96931.69
2022-10-16T03:49:28.467Z,96931.06
2022-10-16T03:51:56.336Z,96933.09
2022-10-16T03:54:23.223Z,96937.28
2022-10-16T03:56:49.979Z,96944.16
2022-10-16T03:59:16.776Z,96945.56
2022-10-16T04:01:43.515Z,96935.16
2022-10-16T04:04:10.277Z,96947.63
2022-10-16T04:06:36.928Z,96959.41
2022-10-16T04:09:03.912Z,96963.50
2022-10-16T04:11:30.609Z,96963.50
2022-10-16T04:14:06.525Z,96964.16
2022-10-16T04:16:35.800Z,96971.09
2022-10-16T04:19:03.009Z,96973.84
2022-10-16T04:21:29.784Z,96977.25
2022-10-16T04:23:56.465Z,96975.19
2022-10-16T04:26:23.282Z,96980.72
2022-10-16T04:28:50.042Z,96984.81
2022-10-16T04:31:16.960Z,96981.34
2022-10-16T04:33:44.296Z,96980.63
2022-10-16T04:36:11.016Z,96983.38
2022-10-16T04:38:38.546Z,96982.69
2022-10-16T04:41:05.603Z,96993.75
2022-10-16T04:43:32.253Z,96993.75
2022-10-16T04:45:59.088Z,96987.50
2022-10-16T04:48:25.822Z,96992.31
2022-10-16T04:50:54.536Z,96986.78
2022-10-16T04:53:22.156Z,96979.22
2022-10-16T04:55:48.908Z,96978.50
2022-10-16T04:58:15.537Z,96986.09
2022-10-16T05:00:42.507Z,96990.25
2022-10-16T05:03:09.907Z,97003.38
2022-10-16T05:05:37.325Z,97000.59
2022-10-16T05:08:05.093Z,96988.84
2022-10-16T05:10:31.887Z,96991.59
2022-10-16T05:12:58.708Z,96983.31
2022-10-16T05:15:26.107Z,96986.09
2022-10-16T05:17:56.440Z,96979.84
2022-10-16T05:20:23.968Z,96981.25
2022-10-16T05:22:50.956Z,96977.78
2022-10-16T05:25:22.814Z,96977.78
2022-10-16T05:27:53.058Z,96973.59
2022-10-16T05:30:21.623Z,96980.56
2022-10-16T05:32:51.913Z,96979.84
2022-10-16T05:35:22.698Z,96976.38
2022-10-16T05:37:50.881Z,96975.66
2022-10-16T05:40:21.435Z,96975.66
2022-10-16T05:42:56.363Z,96981.91
2022-10-16T05:45:26.140Z,96982.59
2022-10-16T05:47:55.833Z,96979.84
2022-10-16T05:50:26.272Z,96982.94
2022-10-16T05:52:56.496Z,96978.56
2022-10-16T05:55:26.057Z,96984.75
2022-10-16T05:57:59.476Z,96988.84
2022-10-16T06:00:29.567Z,97001.25
2022-10-16T06:02:59.570Z,97001.97
2022-10-16T06:05:32.591Z,97005.44
2022-10-16T06:08:00.054Z,97006.13
2022-10-16T06:10:29.152Z,97007.47
2022-10-16T06:13:01.803Z,97011.66
2022-10-16T06:15:32.287Z,97020.66
2022-10-16T06:18:03.862Z,97024.13
2022-10-16T06:20:31.022Z,97030.38
2022-10-16T06:23:01.395Z,97034.47
2022-10-16T06:25:31.563Z,97031.78
2022-10-16T06:28:04.088Z,97040.72
2022-10-16T06:30:35.712Z,97046.97
2022-10-16T06:33:04.443Z,97053.91
2022-10-16T06:35:38.961Z,97062.19
2022-10-16T06:38:09.705Z,97062.28
2022-10-16T06:40:37.562Z,97068.47
2022-10-16T06:43:04.946Z,97076.41
2022-10-16T06:45:34.762Z,97060.97
2022-10-16T06:48:14.230Z,97071.78
2022-10-16T06:50:43.679Z,97063.56
2022-10-16T06:53:11.929Z,97073.28
2022-10-16T06:55:42.865Z,97069.28
2022-10-16T06:58:12.550Z,97071.66
2022-10-16T07:00:43.135Z,97067.72
2022-10-16T07:03:12.223Z,97066.94
2022-10-16T07:05:45.645Z,97068.72
2022-10-16T07:08:13.423Z,97065.06
2022-10-16T07:10:41.452Z,97063.09
2022-10-16T07:13:17.456Z,97053.13
2022-10-16T07:15:46.980Z,97066.56
2022-10-16T07:18:15.750Z,97063.41
2022-10-16T07:20:47.594Z,97061.69
2022-10-16T07:23:29.202Z,97068.91
2022-10-16T07:25:59.352Z,97077.50
2022-10-16T07:28:31.072Z,97082.09
2022-10-16T07:31:10.619Z,97091.22
2022-10-16T07:33:46.376Z,97089.88
2022-10-16T07:36:16.614Z,97095.31
2022-10-16T07:38:47.097Z,97102.66
2022-10-16T07:41:20.989Z,97099.81
2022-10-16T07:43:50.441Z,97106.94
2022-10-16T07:46:21.158Z,97111.28
2022-10-16T07:48:50.913Z,97108.13
2022-10-16T07:51:26.956Z,97117.00
2022-10-16T07:53:54.734Z,97125.81
2022-10-16T07:56:25.696Z,97129.53
2022-10-16T07:58:56.216Z,97128.25
2022-10-16T08:01:23.340Z,97134.13
2022-10-16T08:03:53.121Z,97134.59
2022-10-16T08:06:25.006Z,97141.16
2022-10-16T08:08:55.592Z,97146.97
2022-10-16T08:11:22.287Z,97154.19
2022-10-16T08:13:48.983Z,97156.75
2022-10-16T08:16:15.750Z,97164.19
2022-10-16T08:18:42.509Z,97170.84
2022-10-16T08:21:18.587Z,97168.28
2022-10-16T08:23:52.863Z,97167.09
2022-10-16T08:26:23.811Z,97174.19
2022-10-16T08:28:52.104Z,97171.50
2022-10-16T08:31:18.966Z,97168.94
2022-10-16T08:33:47.900Z,97172.56
2022-10-16T08:36:15.723Z,97174.06
2022-10-16T08:38:42.382Z,97169.28
2022-10-16T08:41:34.568Z,97176.91
2022-10-16T08:44:27.757Z,97182.50
2022-10-16T08:46:54.529Z,97185.44
2022-10-16T08:49:21.210Z,97192.47
2022-10-16T08:51:50.507Z,97204.84
2022-10-16T08:54:27.458Z,97211.81
2022-10-16T08:57:12.929Z,97206.91
2022-10-16T08:59:44.985Z,97218.06
2022-10-16T09:02:30.429Z,97212.25
2022-10-16T09:05:04.563Z,97207.06
2022-10-16T09:07:39.986Z,97218.88
2022-10-16T09:10:26.982Z,97223.63
2022-10-16T09:13:11.480Z,97220.38
2022-10-16T09:16:13.675Z,97227.25
2022-10-16T09:18:53.256Z,97235.88
2022-10-16T09:21:43.714Z,97244.47
2022-10-16T09:24:17.472Z,97238.94
2022-10-16T09:26:48.043Z,97254.53
2022-10-16T09:29:21.846Z,97256.72
2022-10-16T09:31:48.990Z,97257.84
2022-10-16T09:34:33.511Z,97265.59
2022-10-16T09:37:00.792Z,97258.84
2022-10-16T09:39:27.432Z,97270.91
2022-10-16T09:41:54.400Z,97275.09
2022-10-16T09:44:27.246Z,97268.28
2022-10-16T09:47:14.633Z,97258.13
2022-10-16T09:49:52.527Z,97271.25
2022-10-16T09:52:20.085Z,97271.75
2022-10-16T09:54:57.912Z,97261.81
2022-10-16T09:57:25.858Z,97272.38
2022-10-16T09:59:57.595Z,97266.41
2022-10-16T10:02:27.294Z,97275.94
2022-10-16T10:04:58.248Z,97267.84
2022-10-16T10:07:34.946Z,97272.38
2022-10-16T10:10:04.272Z,97275.88
2022-10-16T10:12:36.719Z,97270.50
2022-10-16T10:15:10.611Z,97265.81
2022-10-16T10:17:47.356Z,97274.66
2022-10-16T10:20:33.815Z,97267.94
2022-10-16T10:23:00.603Z,97270.34
2022-10-16T10:25:50.980Z,97263.19
2022-10-16T10:28:39.753Z,97267.91
2022-10-16T10:31:25.617Z,97259.25
2022-10-16T10:33:55.603Z,97259.72
2022-10-16T10:36:33.712Z,97254.91
2022-10-16T10:39:09.576Z,97255.75
2022-10-16T10:41:54.365Z,97256.31
2022-10-16T10:45:07.860Z,97251.56
2022-10-16T10:47:47.474Z,97248.81
2022-10-16T10:50:26.536Z,97246.13
2022-10-16T10:53:02.683Z,97252.50
2022-10-16T10:56:19.580Z,97259.72
2022-10-16T10:59:03.451Z,97253.09
2022-10-16T11:01:45.904Z,97249.47
2022-10-16T11:04:34.444Z,97255.75
2022-10-16T11:07:13.048Z,97242.28
2022-10-16T11:09:45.053Z,97240.09
2022-10-16T11:12:18.659Z,97237.66
2022-10-16T11:15:00.087Z,97238.38
2022-10-16T11:17:34.517Z,97241.06
2022-10-16T11:20:16.374Z,97246.75
2022-10-16T11:22:48.430Z,97242.69
2022-10-16T11:25:21.810Z,97239.97
2022-10-16T11:27:53.174Z,97240.50
2022-10-16T11:30:23.437Z,97237.75
2022-10-16T11:33:03.019Z,97228.22
2022-10-16T11:36:08.039Z,97218.22
2022-10-16T11:39:18.555Z,97213.03
2022-10-16T11:41:55.685Z,97213.88
2022-10-16T11:44:40.737Z,97216.13
2022-10-16T11:47:59.896Z,97223.13
2022-10-16T11:50:42.008Z,97215.72
2022-10-16T11:53:11.293Z,97220.00
2022-10-16T11:55:43.360Z,97218.78
2022-10-16T11:58:29.511Z,97209.25
2022-10-16T12:01:17.474Z,97202.09
2022-10-16T12:03:51.567Z,97206.25
2022-10-16T12:06:25.474Z,97204.03
2022-10-16T12:08:53.232Z,97198.09
2022-10-16T12:11:28.603Z,97206.91
2022-10-16T12:14:36.881Z,97198.63
2022-10-16T12:17:24.039Z,97197.94
2022-10-16T12:20:13.699Z,97194.66
2022-10-16T12:22:55.087Z,97200.03
2022-10-16T12:25:29.116Z,97187.56
2022-10-16T12:27:58.362Z,97184.31
2022-10-16T12:30:26.414Z,97186.81
2022-10-16T12:33:02.404Z,97191.97
2022-10-16T12:35:32.515Z,97186.09
2022-10-16T12:38:23.183Z,97178.75
2022-10-16T12:41:05.063Z,97176.38
2022-10-16T12:43:48.179Z,97172.63
2022-10-16T12:46:14.790Z,97171.34
2022-10-16T12:48:49.335Z,97163.13
2022-10-16T12:51:31.000Z,97174.34
2022-10-16T12:54:04.561Z,97170.81
2022-10-16T12:57:12.981Z,97167.47
2022-10-16T13:00:16.882Z,97168.72
2022-10-16T13:03:10.200Z,97172.63
2022-10-16T13:05:54.302Z,97170.50
2022-10-16T13:08:52.762Z,97169.88
2022-10-16T13:12:04.099Z,97172.63
2022-10-16T13:14:52.397Z,97174.63
2022-10-16T13:17:24.991Z,97180.81
2022-10-16T13:19:54.751Z,97179.53
2022-10-16T13:23:12.177Z,97173.22
2022-10-16T13:25:50.868Z,97168.34
2022-10-16T13:28:22.791Z,97173.75
2022-10-16T13:30:55.062Z,97169.78
2022-10-16T13:33:37.043Z,97171.66
2022-10-16T13:36:05.031Z,97177.06
2022-10-16T13:38:36.340Z,97183.44
2022-10-16T13:41:21.890Z,97184.72
2022-10-16T13:43:53.962Z,97182.00
2022-10-16T13:46:23.173Z,97187.00
2022-10-16T13:49:03.196Z,97184.63
2022-10-16T13:51:31.552Z,97178.28
2022-10-16T13:53:58.686Z,97177.00
2022-10-16T13:56:31.277Z,97187.44
2022-10-16T13:59:05.316Z,97188.72
2022-10-16T14:01:41.620Z,97182.91
2022-10-16T14:04:10.586Z,97187.50
2022-10-16T14:06:38.135Z,97186.59
2022-10-16T14:09:10.330Z,97176.91
2022-10-16T14:11:47.295Z,97188.09
2022-10-16T14:14:14.434Z,97184.63
2022-10-16T14:16:42.523Z,97182.41
2022-10-16T14:19:23.509Z,97186.00
2022-10-16T14:21:51.866Z,97177.00
2022-10-16T14:24:30.793Z,97177.75
2022-10-16T14:26:57.882Z,97181.25
2022-10-16T14:29:26.212Z,97177.19
2022-10-16T14:31:57.758Z,97180.16
2022-10-16T14:34:36.800Z,97175.44
2022-10-16T14:37:27.716Z,97176.69
2022-10-16T14:39:56.130Z,97178.88
2022-10-16T14:42:25.444Z,97172.59
2022-10-16T14:44:55.942Z,97187.00
2022-10-16T14:47:26.799Z,97181.09
2022-10-16T14:50:00.014Z,97183.81
2022-10-16T14:52:26.904Z,97185.97
2022-10-16T14:54:57.433Z,97181.69
2022-10-16T14:57:31.787Z,97184.50
2022-10-16T14:59:58.605Z,97179.53
2022-10-16T15:02:33.446Z,97179.47
2022-10-16T15:05:11.875Z,97178.19
2022-10-16T15:07:38.605Z,97174.19
2022-10-16T15:10:06.016Z,97175.03
2022-10-16T15:12:32.715Z,97174.97
2022-10-16T15:14:59.351Z,97167.75
2022-10-16T15:17:26.233Z,97172.00
2022-10-16T15:19:53.323Z,97176.28
2022-10-16T15:22:20.296Z,97170.75
2022-10-16T15:24:48.180Z,97170.81
2022-10-16T15:27:14.963Z,97170.34
2022-10-16T15:29:41.870Z,97165.75
2022-10-16T15:32:10.628Z,97162.38
2022-10-16T15:34:37.279Z,97159.28
2022-10-16T15:37:05.019Z,97160.38
2022-10-16T15:39:31.655Z,97157.31
2022-10-16T15:41:58.581Z,97158.97
2022-10-16T15:44:27.307Z,97156.56
2022-10-16T15:46:55.822Z,97154.44
2022-10-16T15:49:22.716Z,97164.03
2022-10-16T15:51:49.493Z,97159.75
2022-10-16T15:54:16.471Z,97162.78
2022-10-16T15:56:43.118Z,97164.00
2022-10-16T15:59:09.948Z,97163.09
2022-10-16T16:01:36.877Z,97164.66
2022-10-16T16:04:11.129Z,97167.81
2022-10-16T16:06:45.761Z,97174.31
2022-10-16T16:09:13.024Z,97165.16
2022-10-16T16:11:39.894Z,97170.75
2022-10-16T16:14:07.923Z,97175.69
2022-10-16T16:16:38.395Z,97172.47
2022-10-16T16:19:09.208Z,97171.38
2022-10-16T16:21:38.358Z,97173.91
2022-10-16T16:24:09.418Z,97162.22
2022-10-16T16:26:40.392Z,97173.28
2022-10-16T16:29:07.607Z,97178.50
2022-10-16T16:31:35.788Z,97178.94
2022-10-16T16:34:02.808Z,97184.38
2022-10-16T16:36:29.763Z,97185.72
2022-10-16T16:38:56.444Z,97191.91
2022-10-16T16:41:26.802Z,97193.72
2022-10-16T16:43:53.860Z,97195.13
2022-10-16T16:46:20.750Z,97198.28
2022-10-16T16:48:48.086Z,97202.78
2022-10-16T16:51:18.605Z,97213.47
2022-10-16T16:53:47.195Z,97207.53
2022-10-16T16:56:14.834Z,97222.69
2022-10-16T16:58:41.892Z,97221.09
2022-10-16T17:01:26.257Z,97220.66
2022-10-16T17:03:55.769Z,97226.47
2022-10-16T17:06:26.527Z,97229.59
2022-10-16T17:08:53.672Z,97231.72
2022-10-16T17:11:22.683Z,97232.28
2022-10-16T17:13:53.905Z,97245.38
2022-10-16T17:16:28.833Z,97243.78
2022-10-16T17:18:55.823Z,97248.69
2022-10-16T17:21:23.323Z,97251.34
2022-10-16T17:23:52.857Z,97263.44
2022-10-16T17:26:19.803Z,97262.50
2022-10-16T17:28:46.623Z,97258.84
2022-10-16T17:31:20.123Z,97272.41
2022-10-16T17:33:46.900Z,97272.88
2022-10-16T17:36:14.773Z,97280.78
2022-10-16T17:38:42.717Z,97290.06
2022-10-16T17:41:18.977Z,97291.06
2022-10-16T17:43:46.624Z,97300.31
2022-10-16T17:46:15.299Z,97290.16
2022-10-16T17:48:44.323Z,97297.28
2022-10-16T17:51:13.871Z,97308.59
2022-10-16T17:53:40.815Z,97296.28
2022-10-16T17:56:10.394Z,97305.38
2022-10-16T17:58:37.305Z,97311.09
2022-10-16T18:01:22.515Z,97310.47
2022-10-16T18:03:53.617Z,97310.66
2022-10-16T18:06:22.857Z,97307.97
2022-10-16T18:08:51.299Z,97317.81
2022-10-16T18:11:18.284Z,97317.16
2022-10-16T18:13:44.958Z,97321.34
2022-10-16T18:16:13.756Z,97328.31
2022-10-16T18:18:42.087Z,97326.25
2022-10-16T18:21:11.431Z,97333.31
2022-10-16T18:23:38.878Z,97333.41
2022-10-16T18:26:12.273Z,97344.47
2022-10-16T18:28:41.181Z,97349.41
2022-10-16T18:31:12.009Z,97355.66
2022-10-16T18:33:39.823Z,97357.78
2022-10-16T18:36:08.983Z,97366.09
2022-10-16T18:38:39.679Z,97357.78
2022-10-16T18:41:06.664Z,97365.56
2022-10-16T18:43:35.058Z,97362.06
2022-10-16T18:46:04.273Z,97366.88
2022-10-16T18:48:36.568Z,97363.41
2022-10-16T18:51:22.572Z,97361.44
2022-10-16T18:53:51.929Z,97363.56
2022-10-16T18:56:20.459Z,97361.44
2022-10-16T18:58:50.909Z,97366.25
2022-10-16T19:01:20.985Z,97368.66
2022-10-16T19:03:49.111Z,97367.06
2022-10-16T19:06:16.870Z,97364.09
2022-10-16T19:08:43.774Z,97366.09
2022-10-16T19:11:16.799Z,97373.63
2022-10-16T19:13:44.650Z,97377.09
2022-10-16T19:16:21.230Z,97377.69
2022-10-16T19:18:50.395Z,97382.53
2022-10-16T19:21:17.562Z,97379.75
2022-10-16T19:23:44.844Z,97385.94
2022-10-16T19:26:29.982Z,97384.41
2022-10-16T19:29:02.432Z,97388.63
2022-10-16T19:31:48.974Z,97391.28
2022-10-16T19:34:19.206Z,97393.34
2022-10-16T19:36:57.658Z,97391.09
2022-10-16T19:39:31.235Z,97393.88
2022-10-16T19:41:58.779Z,97384.78
2022-10-16T19:44:32.771Z,97386.13
2022-10-16T19:47:09.812Z,97389.50
2022-10-16T19:49:48.530Z,97388.09
2022-10-16T19:52:30.106Z,97398.41
2022-10-16T19:55:07.033Z,97398.34
2022-10-16T19:57:43.794Z,97408.00
2022-10-16T20:00:21.501Z,97398.22
2022-10-16T20:03:02.249Z,97400.91
2022-10-16T20:05:37.349Z,97405.03
2022-10-16T20:08:13.573Z,97402.16
2022-10-16T20:10:57.675Z,97405.56
2022-10-16T20:13:26.791Z,97406.19
2022-10-16T20:18:31.207Z,97413.69
2022-10-16T20:20:57.955Z,97412.97
2022-10-16T20:23:24.767Z,97410.84
2022-10-16T20:25:52.930Z,97410.75
2022-10-16T20:28:21.931Z,97414.84
2022-10-16T20:30:50.679Z,97416.19
2022-10-16T20:33:17.979Z,97416.81
2022-10-16T20:35:47.144Z,97422.97
2022-10-16T20:38:15.707Z,97422.88
2022-10-16T20:40:44.886Z,97426.97
2022-10-16T20:43:17.166Z,97432.44
2022-10-16T20:45:44.317Z,97432.44
2022-10-16T20:48:11.899Z,97432.31
2022-10-16T20:50:39.831Z,97432.97
2022-10-16T20:53:07.274Z,97434.31
2022-10-16T20:55:37.737Z,97434.94
2022-10-16T20:58:05.216Z,97430.38
2022-10-16T21:00:32.086Z,97434.94
2022-10-16T21:02:58.832Z,97434.13
2022-10-16T21:05:28.853Z,97438.13
2022-10-16T21:07:55.848Z,97440.16
2022-10-16T21:10:23.140Z,97439.38
2022-10-16T21:12:55.056Z,97442.06
2022-10-16T21:15:22.169Z,97442.66
2022-10-16T21:17:48.869Z,97439.19
2022-10-16T21:20:15.996Z,97431.50
2022-10-16T21:22:42.687Z,97432.22
2022-10-16T21:25:09.581Z,97427.31
2022-10-16T21:27:38.204Z,97427.22
2022-10-16T21:30:06.790Z,97440.31
2022-10-16T21:32:36.006Z,97440.97
2022-10-16T21:35:02.906Z,97442.28
2022-10-16T21:37:29.508Z,97449.16
2022-10-16T21:39:56.379Z,97445.66
2022-10-16T21:42:23.147Z,97440.88
2022-10-16T21:44:49.931Z,97436.56
2022-10-16T21:47:16.523Z,97442.09
2022-10-16T21:49:43.451Z,97436.56
2022-10-16T21:52:10.160Z,97448.97
2022-10-16T21:54:36.895Z,97440.56
2022-10-16T21:57:10.976Z,97448.88
2022-10-16T21:59:37.816Z,97448.53
2022-10-16T22:02:06.102Z,97448.53
2022-10-16T22:04:32.956Z,97462.25
2022-10-16T22:06:59.715Z,97459.31
2022-10-16T22:09:26.550Z,97466.78
2022-10-16T22:11:53.441Z,97465.28
2022-10-16T22:14:21.860Z,97463.84
2022-10-16T22:16:49.518Z,97469.38
2022-10-16T22:19:18.853Z,97474.81
2022-10-16T22:21:47.348Z,97474.81
2022-10-16T22:24:15.531Z,97464.38
2022-10-16T22:26:42.482Z,97469.19
2022-10-16T22:29:11.996Z,97473.31
2022-10-16T22:31:38.913Z,97474.72
2022-10-16T22:34:05.871Z,97475.31
2022-10-16T22:36:33.694Z,97464.19
2022-10-16T22:39:05.104Z,97476.66
2022-10-16T22:41:37.239Z,97474.72
2022-10-16T22:44:04.397Z,97465.72
2022-10-16T22:46:31.657Z,97462.13
2022-10-16T22:48:58.743Z,97473.31
2022-10-16T22:51:42.891Z,97479.53
2022-10-16T22:54:14.555Z,97468.13
2022-10-16T22:56:56.648Z,97474.56
2022-10-16T22:59:27.030Z,97475.38
2022-10-16T23:01:53.676Z,97479.19
2022-10-16T23:04:20.403Z,97475.44
2022-10-16T23:06:57.886Z,97473.31
2022-10-16T23:09:27.517Z,97476.44
2022-10-16T23:12:03.240Z,97468.75
2022-10-16T23:14:39.297Z,97472.13
2022-10-16T23:17:13.528Z,97468.47
2022-10-16T23:19:46.926Z,97469.38
2022-10-16T23:22:15.527Z,97466.00
2022-10-16T23:24:42.261Z,97474.72
2022-10-16T23:27:09.048Z,97475.16
2022-10-16T23:29:36.096Z,97481.81
2022-10-16T23:32:02.792Z,97485.81
2022-10-16T23:34:29.460Z,97485.00
2022-10-16T23:36:57.689Z,97476.72
2022-10-16T23:39:25.419Z,97487.16
2022-10-16T23:41:52.153Z,97485.72
2022-10-16T23:44:18.868Z,97488.38
2022-10-16T23:46:45.619Z,97487.53
2022-10-16T23:49:12.276Z,97488.16
2022-10-16T23:51:38.955Z,97492.25
2022-10-16T23:54:05.624Z,97492.88
2022-10-16T23:56:32.424Z,97501.16
2022-10-16T23:58:59.061Z,97498.31
